Terminal Aerodrome Forecast
Issued by NWS North Platte, NE

Home | Current Version | Previous Version | Text Only | Print | Product List | Glossary On
Versions: 1 2 3 4 5 6 7 8 9 10 11 12 13 14
818
FTUS43 KLBF 061727
TAFLBF
TAF
KLBF 061727Z 0618/0718 27009KT P6SM SCT250
     FM062000 28010G18KT P6SM SCT120
     FM070000 29008KT P6SM BKN120
     FM071500 31015KT P6SM BKN120=

USA.gov is the U.S. government's official web portal to all federal, state and local government web resources and services.